<?xml version="1.0" encoding="UTF-8" standalone="no" ?>
<gpx xmlns="http://www.topografix.com/GPX/1/1" xmlns:xsi="http://www.w3.org/2001/XMLSchema-instance" xsi:schemaLocation="http://www.topografix.com/GPX/1/1 http://www.topografix.com/GPX/1/1/gpx.xsd" version="1.1" creator="VisuGPX - https://www.visugpx.com">
  <metadata>
    <name>Retour Paddock Fin Boucle 1 - 2.2 km / 30m D+ / 60m D-</name>
    <desc><![CDATA[

]]></desc>
  </metadata>
  <trk>
    <name><![CDATA[Retour Paddock Fin Boucle 1 - 2.2 km / 30m D+ / 60m D-]]></name>
    <trkseg>
      <trkpt lat="43.55402" lon="2.92783">
        <ele>226</ele>
        <time>2019-03-03T13:42:32Z</time>
      </trkpt>
      <trkpt lat="43.55402" lon="2.92783">
        <ele>226</ele>
        <time>2019-03-03T13:42:32Z</time>
      </trkpt>
      <trkpt lat="43.55402" lon="2.92783">
        <ele>226</ele>
        <time>2019-03-03T13:42:32Z</time>
      </trkpt>
      <trkpt lat="43.55399" lon="2.9278">
        <ele>225</ele>
        <time>2019-03-03T13:42:40Z</time>
      </trkpt>
      <trkpt lat="43.55397" lon="2.92779">
        <ele>225</ele>
        <time>2019-03-03T13:42:41Z</time>
      </trkpt>
      <trkpt lat="43.55395" lon="2.92777">
        <ele>225</ele>
        <time>2019-03-03T13:42:42Z</time>
      </trkpt>
      <trkpt lat="43.55393" lon="2.92776">
        <ele>225</ele>
        <time>2019-03-03T13:42:43Z</time>
      </trkpt>
      <trkpt lat="43.55391" lon="2.92775">
        <ele>225</ele>
        <time>2019-03-03T13:42:44Z</time>
      </trkpt>
      <trkpt lat="43.55388" lon="2.92773">
        <ele>225</ele>
        <time>2019-03-03T13:42:45Z</time>
      </trkpt>
      <trkpt lat="43.55385" lon="2.92772">
        <ele>225</ele>
        <time>2019-03-03T13:42:46Z</time>
      </trkpt>
      <trkpt lat="43.55383" lon="2.92771">
        <ele>225</ele>
        <time>2019-03-03T13:42:47Z</time>
      </trkpt>
      <trkpt lat="43.5538" lon="2.92769">
        <ele>225</ele>
        <time>2019-03-03T13:42:48Z</time>
      </trkpt>
      <trkpt lat="43.55377" lon="2.92767">
        <ele>225</ele>
        <time>2019-03-03T13:42:49Z</time>
      </trkpt>
      <trkpt lat="43.55373" lon="2.92765">
        <ele>225</ele>
        <time>2019-03-03T13:42:50Z</time>
      </trkpt>
      <trkpt lat="43.5537" lon="2.92763">
        <ele>225</ele>
        <time>2019-03-03T13:42:51Z</time>
      </trkpt>
      <trkpt lat="43.55367" lon="2.92761">
        <ele>225</ele>
        <time>2019-03-03T13:42:52Z</time>
      </trkpt>
      <trkpt lat="43.55364" lon="2.92758">
        <ele>225</ele>
        <time>2019-03-03T13:42:53Z</time>
      </trkpt>
      <trkpt lat="43.5536" lon="2.92756">
        <ele>225</ele>
        <time>2019-03-03T13:42:54Z</time>
      </trkpt>
      <trkpt lat="43.55357" lon="2.92753">
        <ele>225</ele>
        <time>2019-03-03T13:42:55Z</time>
      </trkpt>
      <trkpt lat="43.55354" lon="2.92751">
        <ele>225</ele>
        <time>2019-03-03T13:42:56Z</time>
      </trkpt>
      <trkpt lat="43.55351" lon="2.92749">
        <ele>226</ele>
        <time>2019-03-03T13:42:57Z</time>
      </trkpt>
      <trkpt lat="43.55348" lon="2.92746">
        <ele>226</ele>
        <time>2019-03-03T13:42:58Z</time>
      </trkpt>
      <trkpt lat="43.55345" lon="2.92744">
        <ele>226</ele>
        <time>2019-03-03T13:42:59Z</time>
      </trkpt>
      <trkpt lat="43.55341" lon="2.92742">
        <ele>226</ele>
        <time>2019-03-03T13:43:00Z</time>
      </trkpt>
      <trkpt lat="43.55338" lon="2.92739">
        <ele>226</ele>
        <time>2019-03-03T13:43:01Z</time>
      </trkpt>
      <trkpt lat="43.55335" lon="2.92737">
        <ele>226</ele>
        <time>2019-03-03T13:43:02Z</time>
      </trkpt>
      <trkpt lat="43.55333" lon="2.92736">
        <ele>226</ele>
        <time>2019-03-03T13:43:03Z</time>
      </trkpt>
      <trkpt lat="43.5533" lon="2.92734">
        <ele>226</ele>
        <time>2019-03-03T13:43:04Z</time>
      </trkpt>
      <trkpt lat="43.55327" lon="2.92732">
        <ele>226</ele>
        <time>2019-03-03T13:43:05Z</time>
      </trkpt>
      <trkpt lat="43.55324" lon="2.92729">
        <ele>226</ele>
        <time>2019-03-03T13:43:06Z</time>
      </trkpt>
      <trkpt lat="43.55321" lon="2.92727">
        <ele>226</ele>
        <time>2019-03-03T13:43:07Z</time>
      </trkpt>
      <trkpt lat="43.55318" lon="2.92724">
        <ele>226</ele>
        <time>2019-03-03T13:43:08Z</time>
      </trkpt>
      <trkpt lat="43.55315" lon="2.92721">
        <ele>227</ele>
        <time>2019-03-03T13:43:09Z</time>
      </trkpt>
      <trkpt lat="43.55312" lon="2.92718">
        <ele>227</ele>
        <time>2019-03-03T13:43:10Z</time>
      </trkpt>
      <trkpt lat="43.55309" lon="2.92715">
        <ele>227</ele>
        <time>2019-03-03T13:43:11Z</time>
      </trkpt>
      <trkpt lat="43.55306" lon="2.92712">
        <ele>227</ele>
        <time>2019-03-03T13:43:12Z</time>
      </trkpt>
      <trkpt lat="43.55302" lon="2.9271">
        <ele>227</ele>
        <time>2019-03-03T13:43:13Z</time>
      </trkpt>
      <trkpt lat="43.55299" lon="2.92708">
        <ele>228</ele>
        <time>2019-03-03T13:43:14Z</time>
      </trkpt>
      <trkpt lat="43.55296" lon="2.92706">
        <ele>228</ele>
        <time>2019-03-03T13:43:15Z</time>
      </trkpt>
      <trkpt lat="43.55292" lon="2.92704">
        <ele>228</ele>
        <time>2019-03-03T13:43:16Z</time>
      </trkpt>
      <trkpt lat="43.55288" lon="2.92703">
        <ele>228</ele>
        <time>2019-03-03T13:43:17Z</time>
      </trkpt>
      <trkpt lat="43.55285" lon="2.92702">
        <ele>228</ele>
        <time>2019-03-03T13:43:18Z</time>
      </trkpt>
      <trkpt lat="43.55281" lon="2.927">
        <ele>228</ele>
        <time>2019-03-03T13:43:19Z</time>
      </trkpt>
      <trkpt lat="43.55277" lon="2.92698">
        <ele>228</ele>
        <time>2019-03-03T13:43:20Z</time>
      </trkpt>
      <trkpt lat="43.55274" lon="2.92697">
        <ele>228</ele>
        <time>2019-03-03T13:43:21Z</time>
      </trkpt>
      <trkpt lat="43.5527" lon="2.92696">
        <ele>229</ele>
        <time>2019-03-03T13:43:22Z</time>
      </trkpt>
      <trkpt lat="43.55266" lon="2.92695">
        <ele>229</ele>
        <time>2019-03-03T13:43:23Z</time>
      </trkpt>
      <trkpt lat="43.55262" lon="2.92694">
        <ele>229</ele>
        <time>2019-03-03T13:43:24Z</time>
      </trkpt>
      <trkpt lat="43.55258" lon="2.92694">
        <ele>229</ele>
        <time>2019-03-03T13:43:25Z</time>
      </trkpt>
      <trkpt lat="43.55253" lon="2.92694">
        <ele>229</ele>
        <time>2019-03-03T13:43:26Z</time>
      </trkpt>
      <trkpt lat="43.55249" lon="2.92694">
        <ele>229</ele>
        <time>2019-03-03T13:43:27Z</time>
      </trkpt>
      <trkpt lat="43.55245" lon="2.92695">
        <ele>229</ele>
        <time>2019-03-03T13:43:28Z</time>
      </trkpt>
      <trkpt lat="43.5524" lon="2.92696">
        <ele>229</ele>
        <time>2019-03-03T13:43:29Z</time>
      </trkpt>
      <trkpt lat="43.55236" lon="2.92697">
        <ele>229</ele>
        <time>2019-03-03T13:43:30Z</time>
      </trkpt>
      <trkpt lat="43.55232" lon="2.92698">
        <ele>229</ele>
        <time>2019-03-03T13:43:31Z</time>
      </trkpt>
      <trkpt lat="43.55228" lon="2.92699">
        <ele>229</ele>
        <time>2019-03-03T13:43:32Z</time>
      </trkpt>
      <trkpt lat="43.55224" lon="2.927">
        <ele>229</ele>
        <time>2019-03-03T13:43:33Z</time>
      </trkpt>
      <trkpt lat="43.55219" lon="2.92701">
        <ele>229</ele>
        <time>2019-03-03T13:43:34Z</time>
      </trkpt>
      <trkpt lat="43.55215" lon="2.92702">
        <ele>229</ele>
        <time>2019-03-03T13:43:35Z</time>
      </trkpt>
      <trkpt lat="43.55211" lon="2.92703">
        <ele>229</ele>
        <time>2019-03-03T13:43:36Z</time>
      </trkpt>
      <trkpt lat="43.55207" lon="2.92704">
        <ele>229</ele>
        <time>2019-03-03T13:43:37Z</time>
      </trkpt>
      <trkpt lat="43.55203" lon="2.92704">
        <ele>229</ele>
        <time>2019-03-03T13:43:38Z</time>
      </trkpt>
      <trkpt lat="43.55199" lon="2.92703">
        <ele>229</ele>
        <time>2019-03-03T13:43:39Z</time>
      </trkpt>
      <trkpt lat="43.55195" lon="2.92702">
        <ele>229</ele>
        <time>2019-03-03T13:43:40Z</time>
      </trkpt>
      <trkpt lat="43.55191" lon="2.92702">
        <ele>229</ele>
        <time>2019-03-03T13:43:41Z</time>
      </trkpt>
      <trkpt lat="43.55186" lon="2.92702">
        <ele>230</ele>
        <time>2019-03-03T13:43:42Z</time>
      </trkpt>
      <trkpt lat="43.55182" lon="2.92702">
        <ele>230</ele>
        <time>2019-03-03T13:43:43Z</time>
      </trkpt>
      <trkpt lat="43.55178" lon="2.92702">
        <ele>230</ele>
        <time>2019-03-03T13:43:44Z</time>
      </trkpt>
      <trkpt lat="43.55173" lon="2.92703">
        <ele>230</ele>
        <time>2019-03-03T13:43:45Z</time>
      </trkpt>
      <trkpt lat="43.55169" lon="2.92704">
        <ele>230</ele>
        <time>2019-03-03T13:43:46Z</time>
      </trkpt>
      <trkpt lat="43.55165" lon="2.92704">
        <ele>230</ele>
        <time>2019-03-03T13:43:47Z</time>
      </trkpt>
      <trkpt lat="43.55161" lon="2.92704">
        <ele>230</ele>
        <time>2019-03-03T13:43:48Z</time>
      </trkpt>
      <trkpt lat="43.55157" lon="2.92704">
        <ele>230</ele>
        <time>2019-03-03T13:43:49Z</time>
      </trkpt>
      <trkpt lat="43.55153" lon="2.92704">
        <ele>230</ele>
        <time>2019-03-03T13:43:50Z</time>
      </trkpt>
      <trkpt lat="43.55149" lon="2.92704">
        <ele>230</ele>
        <time>2019-03-03T13:43:51Z</time>
      </trkpt>
      <trkpt lat="43.55145" lon="2.92705">
        <ele>230</ele>
        <time>2019-03-03T13:43:52Z</time>
      </trkpt>
      <trkpt lat="43.55141" lon="2.92705">
        <ele>231</ele>
        <time>2019-03-03T13:43:53Z</time>
      </trkpt>
      <trkpt lat="43.55137" lon="2.92705">
        <ele>231</ele>
        <time>2019-03-03T13:43:54Z</time>
      </trkpt>
      <trkpt lat="43.55133" lon="2.92705">
        <ele>231</ele>
        <time>2019-03-03T13:43:55Z</time>
      </trkpt>
      <trkpt lat="43.55129" lon="2.92706">
        <ele>232</ele>
        <time>2019-03-03T13:43:56Z</time>
      </trkpt>
      <trkpt lat="43.55125" lon="2.92706">
        <ele>232</ele>
        <time>2019-03-03T13:43:57Z</time>
      </trkpt>
      <trkpt lat="43.55121" lon="2.92707">
        <ele>232</ele>
        <time>2019-03-03T13:43:58Z</time>
      </trkpt>
      <trkpt lat="43.55117" lon="2.92707">
        <ele>233</ele>
        <time>2019-03-03T13:43:59Z</time>
      </trkpt>
      <trkpt lat="43.55113" lon="2.92708">
        <ele>233</ele>
        <time>2019-03-03T13:44:00Z</time>
      </trkpt>
      <trkpt lat="43.5511" lon="2.92708">
        <ele>233</ele>
        <time>2019-03-03T13:44:01Z</time>
      </trkpt>
      <trkpt lat="43.55106" lon="2.92708">
        <ele>233</ele>
        <time>2019-03-03T13:44:02Z</time>
      </trkpt>
      <trkpt lat="43.55102" lon="2.92709">
        <ele>233</ele>
        <time>2019-03-03T13:44:03Z</time>
      </trkpt>
      <trkpt lat="43.55098" lon="2.9271">
        <ele>234</ele>
        <time>2019-03-03T13:44:04Z</time>
      </trkpt>
      <trkpt lat="43.55094" lon="2.92711">
        <ele>234</ele>
        <time>2019-03-03T13:44:05Z</time>
      </trkpt>
      <trkpt lat="43.5509" lon="2.92711">
        <ele>234</ele>
        <time>2019-03-03T13:44:06Z</time>
      </trkpt>
      <trkpt lat="43.55086" lon="2.9271">
        <ele>235</ele>
        <time>2019-03-03T13:44:07Z</time>
      </trkpt>
      <trkpt lat="43.55082" lon="2.92709">
        <ele>235</ele>
        <time>2019-03-03T13:44:08Z</time>
      </trkpt>
      <trkpt lat="43.55079" lon="2.92707">
        <ele>236</ele>
        <time>2019-03-03T13:44:09Z</time>
      </trkpt>
      <trkpt lat="43.55075" lon="2.92705">
        <ele>236</ele>
        <time>2019-03-03T13:44:10Z</time>
      </trkpt>
      <trkpt lat="43.55071" lon="2.92703">
        <ele>236</ele>
        <time>2019-03-03T13:44:11Z</time>
      </trkpt>
      <trkpt lat="43.55068" lon="2.92701">
        <ele>236</ele>
        <time>2019-03-03T13:44:12Z</time>
      </trkpt>
      <trkpt lat="43.55065" lon="2.92699">
        <ele>236</ele>
        <time>2019-03-03T13:44:13Z</time>
      </trkpt>
      <trkpt lat="43.55061" lon="2.92697">
        <ele>237</ele>
        <time>2019-03-03T13:44:14Z</time>
      </trkpt>
      <trkpt lat="43.55058" lon="2.92696">
        <ele>237</ele>
        <time>2019-03-03T13:44:15Z</time>
      </trkpt>
      <trkpt lat="43.55054" lon="2.92695">
        <ele>237</ele>
        <time>2019-03-03T13:44:16Z</time>
      </trkpt>
      <trkpt lat="43.5505" lon="2.92693">
        <ele>237</ele>
        <time>2019-03-03T13:44:17Z</time>
      </trkpt>
      <trkpt lat="43.55047" lon="2.9269">
        <ele>238</ele>
        <time>2019-03-03T13:44:18Z</time>
      </trkpt>
      <trkpt lat="43.55044" lon="2.92688">
        <ele>238</ele>
        <time>2019-03-03T13:44:19Z</time>
      </trkpt>
      <trkpt lat="43.55041" lon="2.92685">
        <ele>238</ele>
        <time>2019-03-03T13:44:20Z</time>
      </trkpt>
      <trkpt lat="43.55037" lon="2.92683">
        <ele>238</ele>
        <time>2019-03-03T13:44:21Z</time>
      </trkpt>
      <trkpt lat="43.55034" lon="2.92681">
        <ele>239</ele>
        <time>2019-03-03T13:44:22Z</time>
      </trkpt>
      <trkpt lat="43.55031" lon="2.92679">
        <ele>239</ele>
        <time>2019-03-03T13:44:23Z</time>
      </trkpt>
      <trkpt lat="43.55028" lon="2.92677">
        <ele>239</ele>
        <time>2019-03-03T13:44:24Z</time>
      </trkpt>
      <trkpt lat="43.55024" lon="2.92675">
        <ele>239</ele>
        <time>2019-03-03T13:44:25Z</time>
      </trkpt>
      <trkpt lat="43.55021" lon="2.92674">
        <ele>240</ele>
        <time>2019-03-03T13:44:26Z</time>
      </trkpt>
      <trkpt lat="43.55017" lon="2.92672">
        <ele>240</ele>
        <time>2019-03-03T13:44:27Z</time>
      </trkpt>
      <trkpt lat="43.55013" lon="2.92671">
        <ele>240</ele>
        <time>2019-03-03T13:44:28Z</time>
      </trkpt>
      <trkpt lat="43.5501" lon="2.9267">
        <ele>240</ele>
        <time>2019-03-03T13:44:29Z</time>
      </trkpt>
      <trkpt lat="43.55006" lon="2.92669">
        <ele>241</ele>
        <time>2019-03-03T13:44:30Z</time>
      </trkpt>
      <trkpt lat="43.55003" lon="2.92667">
        <ele>241</ele>
        <time>2019-03-03T13:44:31Z</time>
      </trkpt>
      <trkpt lat="43.54999" lon="2.92666">
        <ele>241</ele>
        <time>2019-03-03T13:44:32Z</time>
      </trkpt>
      <trkpt lat="43.54996" lon="2.92664">
        <ele>242</ele>
        <time>2019-03-03T13:44:33Z</time>
      </trkpt>
      <trkpt lat="43.54992" lon="2.92662">
        <ele>242</ele>
        <time>2019-03-03T13:44:34Z</time>
      </trkpt>
      <trkpt lat="43.54989" lon="2.9266">
        <ele>242</ele>
        <time>2019-03-03T13:44:35Z</time>
      </trkpt>
      <trkpt lat="43.54986" lon="2.92658">
        <ele>242</ele>
        <time>2019-03-03T13:44:36Z</time>
      </trkpt>
      <trkpt lat="43.54982" lon="2.92656">
        <ele>243</ele>
        <time>2019-03-03T13:44:37Z</time>
      </trkpt>
      <trkpt lat="43.5498" lon="2.92654">
        <ele>243</ele>
        <time>2019-03-03T13:44:38Z</time>
      </trkpt>
      <trkpt lat="43.54978" lon="2.9265">
        <ele>243</ele>
        <time>2019-03-03T13:44:39Z</time>
      </trkpt>
      <trkpt lat="43.54979" lon="2.92646">
        <ele>243</ele>
        <time>2019-03-03T13:44:40Z</time>
      </trkpt>
      <trkpt lat="43.5498" lon="2.92642">
        <ele>244</ele>
        <time>2019-03-03T13:44:41Z</time>
      </trkpt>
      <trkpt lat="43.54983" lon="2.92639">
        <ele>244</ele>
        <time>2019-03-03T13:44:42Z</time>
      </trkpt>
      <trkpt lat="43.54986" lon="2.92636">
        <ele>244</ele>
        <time>2019-03-03T13:44:43Z</time>
      </trkpt>
      <trkpt lat="43.5499" lon="2.92635">
        <ele>244</ele>
        <time>2019-03-03T13:44:44Z</time>
      </trkpt>
      <trkpt lat="43.54993" lon="2.92634">
        <ele>245</ele>
        <time>2019-03-03T13:44:45Z</time>
      </trkpt>
      <trkpt lat="43.54997" lon="2.92633">
        <ele>245</ele>
        <time>2019-03-03T13:44:46Z</time>
      </trkpt>
      <trkpt lat="43.55" lon="2.92632">
        <ele>245</ele>
        <time>2019-03-03T13:44:47Z</time>
      </trkpt>
      <trkpt lat="43.55003" lon="2.92631">
        <ele>245</ele>
        <time>2019-03-03T13:44:48Z</time>
      </trkpt>
      <trkpt lat="43.55007" lon="2.9263">
        <ele>245</ele>
        <time>2019-03-03T13:44:49Z</time>
      </trkpt>
      <trkpt lat="43.5501" lon="2.92629">
        <ele>245</ele>
        <time>2019-03-03T13:44:50Z</time>
      </trkpt>
      <trkpt lat="43.55014" lon="2.92628">
        <ele>245</ele>
        <time>2019-03-03T13:44:51Z</time>
      </trkpt>
      <trkpt lat="43.55017" lon="2.92627">
        <ele>246</ele>
        <time>2019-03-03T13:44:52Z</time>
      </trkpt>
      <trkpt lat="43.5502" lon="2.92626">
        <ele>246</ele>
        <time>2019-03-03T13:44:53Z</time>
      </trkpt>
      <trkpt lat="43.55024" lon="2.92625">
        <ele>246</ele>
        <time>2019-03-03T13:44:54Z</time>
      </trkpt>
      <trkpt lat="43.55027" lon="2.92623">
        <ele>246</ele>
        <time>2019-03-03T13:44:55Z</time>
      </trkpt>
      <trkpt lat="43.55031" lon="2.92622">
        <ele>247</ele>
        <time>2019-03-03T13:44:56Z</time>
      </trkpt>
      <trkpt lat="43.55034" lon="2.92622">
        <ele>247</ele>
        <time>2019-03-03T13:44:57Z</time>
      </trkpt>
      <trkpt lat="43.55037" lon="2.92622">
        <ele>247</ele>
        <time>2019-03-03T13:44:58Z</time>
      </trkpt>
      <trkpt lat="43.5504" lon="2.92622">
        <ele>247</ele>
        <time>2019-03-03T13:44:59Z</time>
      </trkpt>
      <trkpt lat="43.55043" lon="2.92622">
        <ele>247</ele>
        <time>2019-03-03T13:45:00Z</time>
      </trkpt>
      <trkpt lat="43.55046" lon="2.92621">
        <ele>247</ele>
        <time>2019-03-03T13:45:01Z</time>
      </trkpt>
      <trkpt lat="43.5505" lon="2.9262">
        <ele>247</ele>
        <time>2019-03-03T13:45:02Z</time>
      </trkpt>
      <trkpt lat="43.55053" lon="2.92619">
        <ele>248</ele>
        <time>2019-03-03T13:45:03Z</time>
      </trkpt>
      <trkpt lat="43.55057" lon="2.92619">
        <ele>248</ele>
        <time>2019-03-03T13:45:04Z</time>
      </trkpt>
      <trkpt lat="43.55061" lon="2.92618">
        <ele>248</ele>
        <time>2019-03-03T13:45:05Z</time>
      </trkpt>
      <trkpt lat="43.55065" lon="2.92618">
        <ele>248</ele>
        <time>2019-03-03T13:45:06Z</time>
      </trkpt>
      <trkpt lat="43.55069" lon="2.92617">
        <ele>248</ele>
        <time>2019-03-03T13:45:07Z</time>
      </trkpt>
      <trkpt lat="43.55072" lon="2.92617">
        <ele>248</ele>
        <time>2019-03-03T13:45:08Z</time>
      </trkpt>
      <trkpt lat="43.55076" lon="2.92617">
        <ele>248</ele>
        <time>2019-03-03T13:45:09Z</time>
      </trkpt>
      <trkpt lat="43.5508" lon="2.92616">
        <ele>248</ele>
        <time>2019-03-03T13:45:10Z</time>
      </trkpt>
      <trkpt lat="43.55083" lon="2.92616">
        <ele>248</ele>
        <time>2019-03-03T13:45:11Z</time>
      </trkpt>
      <trkpt lat="43.55087" lon="2.92615">
        <ele>248</ele>
        <time>2019-03-03T13:45:12Z</time>
      </trkpt>
      <trkpt lat="43.55091" lon="2.92614">
        <ele>248</ele>
        <time>2019-03-03T13:45:13Z</time>
      </trkpt>
      <trkpt lat="43.55095" lon="2.92613">
        <ele>248</ele>
        <time>2019-03-03T13:45:14Z</time>
      </trkpt>
      <trkpt lat="43.55099" lon="2.92612">
        <ele>249</ele>
        <time>2019-03-03T13:45:15Z</time>
      </trkpt>
      <trkpt lat="43.55103" lon="2.92611">
        <ele>249</ele>
        <time>2019-03-03T13:45:16Z</time>
      </trkpt>
      <trkpt lat="43.55107" lon="2.9261">
        <ele>249</ele>
        <time>2019-03-03T13:45:17Z</time>
      </trkpt>
      <trkpt lat="43.5511" lon="2.92608">
        <ele>249</ele>
        <time>2019-03-03T13:45:18Z</time>
      </trkpt>
      <trkpt lat="43.55114" lon="2.92606">
        <ele>249</ele>
        <time>2019-03-03T13:45:19Z</time>
      </trkpt>
      <trkpt lat="43.55117" lon="2.92604">
        <ele>249</ele>
        <time>2019-03-03T13:45:20Z</time>
      </trkpt>
      <trkpt lat="43.55121" lon="2.92602">
        <ele>249</ele>
        <time>2019-03-03T13:45:21Z</time>
      </trkpt>
      <trkpt lat="43.55125" lon="2.92601">
        <ele>249</ele>
        <time>2019-03-03T13:45:22Z</time>
      </trkpt>
      <trkpt lat="43.55128" lon="2.92599">
        <ele>249</ele>
        <time>2019-03-03T13:45:23Z</time>
      </trkpt>
      <trkpt lat="43.55132" lon="2.92597">
        <ele>250</ele>
        <time>2019-03-03T13:45:24Z</time>
      </trkpt>
      <trkpt lat="43.55136" lon="2.92595">
        <ele>250</ele>
        <time>2019-03-03T13:45:25Z</time>
      </trkpt>
      <trkpt lat="43.55139" lon="2.92593">
        <ele>250</ele>
        <time>2019-03-03T13:45:26Z</time>
      </trkpt>
      <trkpt lat="43.55144" lon="2.92591">
        <ele>250</ele>
        <time>2019-03-03T13:45:27Z</time>
      </trkpt>
      <trkpt lat="43.55148" lon="2.92589">
        <ele>250</ele>
        <time>2019-03-03T13:45:28Z</time>
      </trkpt>
      <trkpt lat="43.55152" lon="2.92586">
        <ele>250</ele>
        <time>2019-03-03T13:45:29Z</time>
      </trkpt>
      <trkpt lat="43.55157" lon="2.92584">
        <ele>250</ele>
        <time>2019-03-03T13:45:30Z</time>
      </trkpt>
      <trkpt lat="43.55162" lon="2.92581">
        <ele>250</ele>
        <time>2019-03-03T13:45:31Z</time>
      </trkpt>
      <trkpt lat="43.55167" lon="2.92576">
        <ele>250</ele>
        <time>2019-03-03T13:45:32Z</time>
      </trkpt>
      <trkpt lat="43.55172" lon="2.92569">
        <ele>250</ele>
        <time>2019-03-03T13:45:33Z</time>
      </trkpt>
      <trkpt lat="43.55178" lon="2.92563">
        <ele>250</ele>
        <time>2019-03-03T13:45:34Z</time>
      </trkpt>
      <trkpt lat="43.55184" lon="2.92558">
        <ele>250</ele>
        <time>2019-03-03T13:45:35Z</time>
      </trkpt>
      <trkpt lat="43.5519" lon="2.92555">
        <ele>250</ele>
        <time>2019-03-03T13:45:36Z</time>
      </trkpt>
      <trkpt lat="43.55197" lon="2.92553">
        <ele>250</ele>
        <time>2019-03-03T13:45:37Z</time>
      </trkpt>
      <trkpt lat="43.55203" lon="2.92551">
        <ele>249</ele>
        <time>2019-03-03T13:45:38Z</time>
      </trkpt>
      <trkpt lat="43.5521" lon="2.92547">
        <ele>249</ele>
        <time>2019-03-03T13:45:39Z</time>
      </trkpt>
      <trkpt lat="43.55216" lon="2.92543">
        <ele>249</ele>
        <time>2019-03-03T13:45:40Z</time>
      </trkpt>
      <trkpt lat="43.55221" lon="2.92537">
        <ele>248</ele>
        <time>2019-03-03T13:45:41Z</time>
      </trkpt>
      <trkpt lat="43.55227" lon="2.92531">
        <ele>248</ele>
        <time>2019-03-03T13:45:42Z</time>
      </trkpt>
      <trkpt lat="43.55231" lon="2.92525">
        <ele>247</ele>
        <time>2019-03-03T13:45:43Z</time>
      </trkpt>
      <trkpt lat="43.55236" lon="2.92521">
        <ele>246</ele>
        <time>2019-03-03T13:45:44Z</time>
      </trkpt>
      <trkpt lat="43.5524" lon="2.92517">
        <ele>245</ele>
        <time>2019-03-03T13:45:45Z</time>
      </trkpt>
      <trkpt lat="43.55245" lon="2.92514">
        <ele>244</ele>
        <time>2019-03-03T13:45:46Z</time>
      </trkpt>
      <trkpt lat="43.5525" lon="2.92512">
        <ele>243</ele>
        <time>2019-03-03T13:45:47Z</time>
      </trkpt>
      <trkpt lat="43.55254" lon="2.92511">
        <ele>243</ele>
        <time>2019-03-03T13:45:48Z</time>
      </trkpt>
      <trkpt lat="43.55258" lon="2.92509">
        <ele>243</ele>
        <time>2019-03-03T13:45:49Z</time>
      </trkpt>
      <trkpt lat="43.55261" lon="2.92508">
        <ele>243</ele>
        <time>2019-03-03T13:45:50Z</time>
      </trkpt>
      <trkpt lat="43.55265" lon="2.92507">
        <ele>243</ele>
        <time>2019-03-03T13:45:51Z</time>
      </trkpt>
      <trkpt lat="43.55269" lon="2.92505">
        <ele>243</ele>
        <time>2019-03-03T13:45:52Z</time>
      </trkpt>
      <trkpt lat="43.55274" lon="2.92504">
        <ele>243</ele>
        <time>2019-03-03T13:45:53Z</time>
      </trkpt>
      <trkpt lat="43.55279" lon="2.92503">
        <ele>243</ele>
        <time>2019-03-03T13:45:54Z</time>
      </trkpt>
      <trkpt lat="43.55284" lon="2.92503">
        <ele>243</ele>
        <time>2019-03-03T13:45:55Z</time>
      </trkpt>
      <trkpt lat="43.5529" lon="2.92502">
        <ele>243</ele>
        <time>2019-03-03T13:45:56Z</time>
      </trkpt>
      <trkpt lat="43.55295" lon="2.92501">
        <ele>243</ele>
        <time>2019-03-03T13:45:57Z</time>
      </trkpt>
      <trkpt lat="43.553" lon="2.925">
        <ele>243</ele>
        <time>2019-03-03T13:45:58Z</time>
      </trkpt>
      <trkpt lat="43.55305" lon="2.92497">
        <ele>243</ele>
        <time>2019-03-03T13:45:59Z</time>
      </trkpt>
      <trkpt lat="43.5531" lon="2.92495">
        <ele>243</ele>
        <time>2019-03-03T13:46:00Z</time>
      </trkpt>
      <trkpt lat="43.55314" lon="2.92491">
        <ele>243</ele>
        <time>2019-03-03T13:46:01Z</time>
      </trkpt>
      <trkpt lat="43.55319" lon="2.92489">
        <ele>243</ele>
        <time>2019-03-03T13:46:02Z</time>
      </trkpt>
      <trkpt lat="43.55323" lon="2.92486">
        <ele>243</ele>
        <time>2019-03-03T13:46:03Z</time>
      </trkpt>
      <trkpt lat="43.55329" lon="2.92484">
        <ele>243</ele>
        <time>2019-03-03T13:46:04Z</time>
      </trkpt>
      <trkpt lat="43.55334" lon="2.92483">
        <ele>243</ele>
        <time>2019-03-03T13:46:05Z</time>
      </trkpt>
      <trkpt lat="43.5534" lon="2.92481">
        <ele>243</ele>
        <time>2019-03-03T13:46:06Z</time>
      </trkpt>
      <trkpt lat="43.55346" lon="2.9248">
        <ele>244</ele>
        <time>2019-03-03T13:46:07Z</time>
      </trkpt>
      <trkpt lat="43.55353" lon="2.92478">
        <ele>243</ele>
        <time>2019-03-03T13:46:08Z</time>
      </trkpt>
      <trkpt lat="43.55359" lon="2.92477">
        <ele>243</ele>
        <time>2019-03-03T13:46:09Z</time>
      </trkpt>
      <trkpt lat="43.55366" lon="2.92476">
        <ele>243</ele>
        <time>2019-03-03T13:46:10Z</time>
      </trkpt>
      <trkpt lat="43.55373" lon="2.92474">
        <ele>243</ele>
        <time>2019-03-03T13:46:11Z</time>
      </trkpt>
      <trkpt lat="43.55379" lon="2.92473">
        <ele>243</ele>
        <time>2019-03-03T13:46:12Z</time>
      </trkpt>
      <trkpt lat="43.55386" lon="2.92472">
        <ele>243</ele>
        <time>2019-03-03T13:46:13Z</time>
      </trkpt>
      <trkpt lat="43.55393" lon="2.92472">
        <ele>243</ele>
        <time>2019-03-03T13:46:14Z</time>
      </trkpt>
      <trkpt lat="43.55401" lon="2.92471">
        <ele>242</ele>
        <time>2019-03-03T13:46:15Z</time>
      </trkpt>
      <trkpt lat="43.55408" lon="2.92471">
        <ele>242</ele>
        <time>2019-03-03T13:46:16Z</time>
      </trkpt>
      <trkpt lat="43.55416" lon="2.92472">
        <ele>241</ele>
        <time>2019-03-03T13:46:17Z</time>
      </trkpt>
      <trkpt lat="43.55423" lon="2.92473">
        <ele>241</ele>
        <time>2019-03-03T13:46:18Z</time>
      </trkpt>
      <trkpt lat="43.5543" lon="2.92475">
        <ele>240</ele>
        <time>2019-03-03T13:46:19Z</time>
      </trkpt>
      <trkpt lat="43.55437" lon="2.92477">
        <ele>240</ele>
        <time>2019-03-03T13:46:20Z</time>
      </trkpt>
      <trkpt lat="43.55443" lon="2.9248">
        <ele>239</ele>
        <time>2019-03-03T13:46:21Z</time>
      </trkpt>
      <trkpt lat="43.55449" lon="2.92483">
        <ele>238</ele>
        <time>2019-03-03T13:46:22Z</time>
      </trkpt>
      <trkpt lat="43.55454" lon="2.92486">
        <ele>238</ele>
        <time>2019-03-03T13:46:23Z</time>
      </trkpt>
      <trkpt lat="43.55459" lon="2.92489">
        <ele>237</ele>
        <time>2019-03-03T13:46:24Z</time>
      </trkpt>
      <trkpt lat="43.55464" lon="2.92489">
        <ele>237</ele>
        <time>2019-03-03T13:46:25Z</time>
      </trkpt>
      <trkpt lat="43.5547" lon="2.92487">
        <ele>237</ele>
        <time>2019-03-03T13:46:26Z</time>
      </trkpt>
      <trkpt lat="43.55475" lon="2.92482">
        <ele>236</ele>
        <time>2019-03-03T13:46:27Z</time>
      </trkpt>
      <trkpt lat="43.55479" lon="2.92475">
        <ele>236</ele>
        <time>2019-03-03T13:46:28Z</time>
      </trkpt>
      <trkpt lat="43.55482" lon="2.92468">
        <ele>235</ele>
        <time>2019-03-03T13:46:29Z</time>
      </trkpt>
      <trkpt lat="43.55486" lon="2.92461">
        <ele>235</ele>
        <time>2019-03-03T13:46:30Z</time>
      </trkpt>
      <trkpt lat="43.55489" lon="2.92454">
        <ele>235</ele>
        <time>2019-03-03T13:46:31Z</time>
      </trkpt>
      <trkpt lat="43.55491" lon="2.92446">
        <ele>235</ele>
        <time>2019-03-03T13:46:32Z</time>
      </trkpt>
      <trkpt lat="43.55493" lon="2.92437">
        <ele>235</ele>
        <time>2019-03-03T13:46:33Z</time>
      </trkpt>
      <trkpt lat="43.55493" lon="2.92427">
        <ele>235</ele>
        <time>2019-03-03T13:46:34Z</time>
      </trkpt>
      <trkpt lat="43.55492" lon="2.92418">
        <ele>235</ele>
        <time>2019-03-03T13:46:35Z</time>
      </trkpt>
      <trkpt lat="43.55489" lon="2.9241">
        <ele>234</ele>
        <time>2019-03-03T13:46:36Z</time>
      </trkpt>
      <trkpt lat="43.55485" lon="2.92401">
        <ele>234</ele>
        <time>2019-03-03T13:46:37Z</time>
      </trkpt>
      <trkpt lat="43.55482" lon="2.92392">
        <ele>234</ele>
        <time>2019-03-03T13:46:38Z</time>
      </trkpt>
      <trkpt lat="43.55479" lon="2.92384">
        <ele>234</ele>
        <time>2019-03-03T13:46:39Z</time>
      </trkpt>
      <trkpt lat="43.55475" lon="2.92375">
        <ele>233</ele>
        <time>2019-03-03T13:46:40Z</time>
      </trkpt>
      <trkpt lat="43.55471" lon="2.92368">
        <ele>233</ele>
        <time>2019-03-03T13:46:41Z</time>
      </trkpt>
      <trkpt lat="43.55465" lon="2.92361">
        <ele>233</ele>
        <time>2019-03-03T13:46:42Z</time>
      </trkpt>
      <trkpt lat="43.55459" lon="2.92356">
        <ele>233</ele>
        <time>2019-03-03T13:46:43Z</time>
      </trkpt>
      <trkpt lat="43.55453" lon="2.92352">
        <ele>233</ele>
        <time>2019-03-03T13:46:44Z</time>
      </trkpt>
      <trkpt lat="43.55447" lon="2.92349">
        <ele>233</ele>
        <time>2019-03-03T13:46:45Z</time>
      </trkpt>
      <trkpt lat="43.5544" lon="2.92344">
        <ele>232</ele>
        <time>2019-03-03T13:46:46Z</time>
      </trkpt>
      <trkpt lat="43.55434" lon="2.9234">
        <ele>231</ele>
        <time>2019-03-03T13:46:47Z</time>
      </trkpt>
      <trkpt lat="43.55428" lon="2.92334">
        <ele>231</ele>
        <time>2019-03-03T13:46:48Z</time>
      </trkpt>
      <trkpt lat="43.55423" lon="2.92328">
        <ele>231</ele>
        <time>2019-03-03T13:46:49Z</time>
      </trkpt>
      <trkpt lat="43.5542" lon="2.9232">
        <ele>231</ele>
        <time>2019-03-03T13:46:50Z</time>
      </trkpt>
      <trkpt lat="43.55417" lon="2.92312">
        <ele>230</ele>
        <time>2019-03-03T13:46:51Z</time>
      </trkpt>
      <trkpt lat="43.55415" lon="2.92303">
        <ele>229</ele>
        <time>2019-03-03T13:46:52Z</time>
      </trkpt>
      <trkpt lat="43.55412" lon="2.92294">
        <ele>229</ele>
        <time>2019-03-03T13:46:53Z</time>
      </trkpt>
      <trkpt lat="43.55411" lon="2.92284">
        <ele>229</ele>
        <time>2019-03-03T13:46:54Z</time>
      </trkpt>
      <trkpt lat="43.55409" lon="2.92274">
        <ele>228</ele>
        <time>2019-03-03T13:46:55Z</time>
      </trkpt>
      <trkpt lat="43.55407" lon="2.92264">
        <ele>228</ele>
        <time>2019-03-03T13:46:56Z</time>
      </trkpt>
      <trkpt lat="43.55404" lon="2.92254">
        <ele>228</ele>
        <time>2019-03-03T13:46:57Z</time>
      </trkpt>
      <trkpt lat="43.55401" lon="2.92244">
        <ele>228</ele>
        <time>2019-03-03T13:46:58Z</time>
      </trkpt>
      <trkpt lat="43.55397" lon="2.92235">
        <ele>227</ele>
        <time>2019-03-03T13:46:59Z</time>
      </trkpt>
      <trkpt lat="43.55392" lon="2.92226">
        <ele>227</ele>
        <time>2019-03-03T13:47:00Z</time>
      </trkpt>
      <trkpt lat="43.55387" lon="2.92218">
        <ele>227</ele>
        <time>2019-03-03T13:47:01Z</time>
      </trkpt>
      <trkpt lat="43.55381" lon="2.9221">
        <ele>226</ele>
        <time>2019-03-03T13:47:02Z</time>
      </trkpt>
      <trkpt lat="43.55375" lon="2.92203">
        <ele>225</ele>
        <time>2019-03-03T13:47:03Z</time>
      </trkpt>
      <trkpt lat="43.55369" lon="2.92195">
        <ele>225</ele>
        <time>2019-03-03T13:47:04Z</time>
      </trkpt>
      <trkpt lat="43.55364" lon="2.92187">
        <ele>225</ele>
        <time>2019-03-03T13:47:05Z</time>
      </trkpt>
      <trkpt lat="43.55359" lon="2.92179">
        <ele>224</ele>
        <time>2019-03-03T13:47:06Z</time>
      </trkpt>
      <trkpt lat="43.55354" lon="2.92171">
        <ele>224</ele>
        <time>2019-03-03T13:47:07Z</time>
      </trkpt>
      <trkpt lat="43.5535" lon="2.92164">
        <ele>224</ele>
        <time>2019-03-03T13:47:08Z</time>
      </trkpt>
      <trkpt lat="43.55348" lon="2.92158">
        <ele>224</ele>
        <time>2019-03-03T13:47:09Z</time>
      </trkpt>
      <trkpt lat="43.55348" lon="2.92151">
        <ele>223</ele>
        <time>2019-03-03T13:47:10Z</time>
      </trkpt>
      <trkpt lat="43.5535" lon="2.92146">
        <ele>223</ele>
        <time>2019-03-03T13:47:11Z</time>
      </trkpt>
      <trkpt lat="43.55354" lon="2.9214">
        <ele>223</ele>
        <time>2019-03-03T13:47:12Z</time>
      </trkpt>
      <trkpt lat="43.55359" lon="2.92133">
        <ele>223</ele>
        <time>2019-03-03T13:47:13Z</time>
      </trkpt>
      <trkpt lat="43.55364" lon="2.92127">
        <ele>222</ele>
        <time>2019-03-03T13:47:14Z</time>
      </trkpt>
      <trkpt lat="43.55369" lon="2.9212">
        <ele>222</ele>
        <time>2019-03-03T13:47:15Z</time>
      </trkpt>
      <trkpt lat="43.55375" lon="2.92113">
        <ele>221</ele>
        <time>2019-03-03T13:47:16Z</time>
      </trkpt>
      <trkpt lat="43.5538" lon="2.92104">
        <ele>221</ele>
        <time>2019-03-03T13:47:17Z</time>
      </trkpt>
      <trkpt lat="43.55383" lon="2.92093">
        <ele>221</ele>
        <time>2019-03-03T13:47:18Z</time>
      </trkpt>
      <trkpt lat="43.55385" lon="2.92082">
        <ele>221</ele>
        <time>2019-03-03T13:47:19Z</time>
      </trkpt>
      <trkpt lat="43.55385" lon="2.9207">
        <ele>221</ele>
        <time>2019-03-03T13:47:20Z</time>
      </trkpt>
      <trkpt lat="43.55383" lon="2.92057">
        <ele>220</ele>
        <time>2019-03-03T13:47:21Z</time>
      </trkpt>
      <trkpt lat="43.5538" lon="2.92045">
        <ele>220</ele>
        <time>2019-03-03T13:47:22Z</time>
      </trkpt>
      <trkpt lat="43.55376" lon="2.92034">
        <ele>219</ele>
        <time>2019-03-03T13:47:23Z</time>
      </trkpt>
      <trkpt lat="43.55371" lon="2.92023">
        <ele>218</ele>
        <time>2019-03-03T13:47:24Z</time>
      </trkpt>
      <trkpt lat="43.55365" lon="2.92013">
        <ele>217</ele>
        <time>2019-03-03T13:47:25Z</time>
      </trkpt>
      <trkpt lat="43.55358" lon="2.92003">
        <ele>216</ele>
        <time>2019-03-03T13:47:26Z</time>
      </trkpt>
      <trkpt lat="43.55352" lon="2.91993">
        <ele>216</ele>
        <time>2019-03-03T13:47:27Z</time>
      </trkpt>
      <trkpt lat="43.55345" lon="2.91983">
        <ele>215</ele>
        <time>2019-03-03T13:47:28Z</time>
      </trkpt>
      <trkpt lat="43.55338" lon="2.91973">
        <ele>214</ele>
        <time>2019-03-03T13:47:29Z</time>
      </trkpt>
      <trkpt lat="43.55331" lon="2.91963">
        <ele>213</ele>
        <time>2019-03-03T13:47:30Z</time>
      </trkpt>
      <trkpt lat="43.55325" lon="2.91953">
        <ele>212</ele>
        <time>2019-03-03T13:47:31Z</time>
      </trkpt>
      <trkpt lat="43.5532" lon="2.91944">
        <ele>211</ele>
        <time>2019-03-03T13:47:32Z</time>
      </trkpt>
      <trkpt lat="43.55317" lon="2.91935">
        <ele>210</ele>
        <time>2019-03-03T13:47:33Z</time>
      </trkpt>
      <trkpt lat="43.55316" lon="2.91927">
        <ele>210</ele>
        <time>2019-03-03T13:47:34Z</time>
      </trkpt>
      <trkpt lat="43.55317" lon="2.9192">
        <ele>209</ele>
        <time>2019-03-03T13:47:35Z</time>
      </trkpt>
      <trkpt lat="43.5532" lon="2.91915">
        <ele>208</ele>
        <time>2019-03-03T13:47:36Z</time>
      </trkpt>
      <trkpt lat="43.55322" lon="2.9191">
        <ele>208</ele>
        <time>2019-03-03T13:47:37Z</time>
      </trkpt>
      <trkpt lat="43.55325" lon="2.91905">
        <ele>207</ele>
        <time>2019-03-03T13:47:38Z</time>
      </trkpt>
      <trkpt lat="43.55328" lon="2.91901">
        <ele>207</ele>
        <time>2019-03-03T13:47:39Z</time>
      </trkpt>
      <trkpt lat="43.5533" lon="2.91896">
        <ele>207</ele>
        <time>2019-03-03T13:47:40Z</time>
      </trkpt>
      <trkpt lat="43.55333" lon="2.91891">
        <ele>207</ele>
        <time>2019-03-03T13:47:41Z</time>
      </trkpt>
      <trkpt lat="43.55335" lon="2.91887">
        <ele>207</ele>
        <time>2019-03-03T13:47:42Z</time>
      </trkpt>
      <trkpt lat="43.55338" lon="2.91883">
        <ele>207</ele>
        <time>2019-03-03T13:47:43Z</time>
      </trkpt>
      <trkpt lat="43.5534" lon="2.91879">
        <ele>207</ele>
        <time>2019-03-03T13:47:44Z</time>
      </trkpt>
      <trkpt lat="43.55342" lon="2.91874">
        <ele>207</ele>
        <time>2019-03-03T13:47:45Z</time>
      </trkpt>
      <trkpt lat="43.55345" lon="2.9187">
        <ele>207</ele>
        <time>2019-03-03T13:47:46Z</time>
      </trkpt>
      <trkpt lat="43.55347" lon="2.91866">
        <ele>208</ele>
        <time>2019-03-03T13:47:47Z</time>
      </trkpt>
      <trkpt lat="43.55349" lon="2.91861">
        <ele>208</ele>
        <time>2019-03-03T13:47:48Z</time>
      </trkpt>
      <trkpt lat="43.55351" lon="2.91856">
        <ele>208</ele>
        <time>2019-03-03T13:47:49Z</time>
      </trkpt>
      <trkpt lat="43.55352" lon="2.91851">
        <ele>209</ele>
        <time>2019-03-03T13:47:50Z</time>
      </trkpt>
      <trkpt lat="43.55353" lon="2.91844">
        <ele>209</ele>
        <time>2019-03-03T13:47:51Z</time>
      </trkpt>
      <trkpt lat="43.55353" lon="2.91836">
        <ele>209</ele>
        <time>2019-03-03T13:47:52Z</time>
      </trkpt>
      <trkpt lat="43.55352" lon="2.91827">
        <ele>209</ele>
        <time>2019-03-03T13:47:53Z</time>
      </trkpt>
      <trkpt lat="43.55349" lon="2.91818">
        <ele>209</ele>
        <time>2019-03-03T13:47:54Z</time>
      </trkpt>
      <trkpt lat="43.55347" lon="2.91808">
        <ele>209</ele>
        <time>2019-03-03T13:47:55Z</time>
      </trkpt>
      <trkpt lat="43.55344" lon="2.91798">
        <ele>209</ele>
        <time>2019-03-03T13:47:56Z</time>
      </trkpt>
      <trkpt lat="43.55341" lon="2.91787">
        <ele>209</ele>
        <time>2019-03-03T13:47:57Z</time>
      </trkpt>
      <trkpt lat="43.55339" lon="2.91776">
        <ele>209</ele>
        <time>2019-03-03T13:47:58Z</time>
      </trkpt>
      <trkpt lat="43.5534" lon="2.91766">
        <ele>209</ele>
        <time>2019-03-03T13:47:59Z</time>
      </trkpt>
      <trkpt lat="43.55341" lon="2.91757">
        <ele>209</ele>
        <time>2019-03-03T13:48:00Z</time>
      </trkpt>
      <trkpt lat="43.55345" lon="2.9175">
        <ele>208</ele>
        <time>2019-03-03T13:48:01Z</time>
      </trkpt>
      <trkpt lat="43.5535" lon="2.91746">
        <ele>207</ele>
        <time>2019-03-03T13:48:02Z</time>
      </trkpt>
      <trkpt lat="43.55356" lon="2.91745">
        <ele>206</ele>
        <time>2019-03-03T13:48:03Z</time>
      </trkpt>
      <trkpt lat="43.55361" lon="2.91747">
        <ele>205</ele>
        <time>2019-03-03T13:48:04Z</time>
      </trkpt>
      <trkpt lat="43.55365" lon="2.9175">
        <ele>204</ele>
        <time>2019-03-03T13:48:05Z</time>
      </trkpt>
      <trkpt lat="43.55369" lon="2.91753">
        <ele>203</ele>
        <time>2019-03-03T13:48:06Z</time>
      </trkpt>
      <trkpt lat="43.55373" lon="2.91755">
        <ele>202</ele>
        <time>2019-03-03T13:48:07Z</time>
      </trkpt>
      <trkpt lat="43.55377" lon="2.91757">
        <ele>202</ele>
        <time>2019-03-03T13:48:08Z</time>
      </trkpt>
      <trkpt lat="43.5538" lon="2.91758">
        <ele>202</ele>
        <time>2019-03-03T13:48:09Z</time>
      </trkpt>
      <trkpt lat="43.55384" lon="2.9176">
        <ele>202</ele>
        <time>2019-03-03T13:48:10Z</time>
      </trkpt>
      <trkpt lat="43.55388" lon="2.91763">
        <ele>202</ele>
        <time>2019-03-03T13:48:11Z</time>
      </trkpt>
      <trkpt lat="43.55392" lon="2.91765">
        <ele>202</ele>
        <time>2019-03-03T13:48:12Z</time>
      </trkpt>
      <trkpt lat="43.55397" lon="2.91767">
        <ele>202</ele>
        <time>2019-03-03T13:48:13Z</time>
      </trkpt>
      <trkpt lat="43.55402" lon="2.91768">
        <ele>202</ele>
        <time>2019-03-03T13:48:14Z</time>
      </trkpt>
      <trkpt lat="43.55407" lon="2.9177">
        <ele>202</ele>
        <time>2019-03-03T13:48:15Z</time>
      </trkpt>
      <trkpt lat="43.55413" lon="2.91769">
        <ele>201</ele>
        <time>2019-03-03T13:48:16Z</time>
      </trkpt>
      <trkpt lat="43.55418" lon="2.91769">
        <ele>201</ele>
        <time>2019-03-03T13:48:17Z</time>
      </trkpt>
      <trkpt lat="43.55424" lon="2.91767">
        <ele>201</ele>
        <time>2019-03-03T13:48:18Z</time>
      </trkpt>
      <trkpt lat="43.55429" lon="2.91766">
        <ele>201</ele>
        <time>2019-03-03T13:48:19Z</time>
      </trkpt>
      <trkpt lat="43.55435" lon="2.91764">
        <ele>201</ele>
        <time>2019-03-03T13:48:20Z</time>
      </trkpt>
      <trkpt lat="43.55442" lon="2.91762">
        <ele>201</ele>
        <time>2019-03-03T13:48:21Z</time>
      </trkpt>
      <trkpt lat="43.55447" lon="2.91758">
        <ele>201</ele>
        <time>2019-03-03T13:48:22Z</time>
      </trkpt>
      <trkpt lat="43.55452" lon="2.91752">
        <ele>201</ele>
        <time>2019-03-03T13:48:23Z</time>
      </trkpt>
      <trkpt lat="43.55456" lon="2.91746">
        <ele>201</ele>
        <time>2019-03-03T13:48:24Z</time>
      </trkpt>
      <trkpt lat="43.5546" lon="2.9174">
        <ele>200</ele>
        <time>2019-03-03T13:48:25Z</time>
      </trkpt>
      <trkpt lat="43.55463" lon="2.91735">
        <ele>200</ele>
        <time>2019-03-03T13:48:26Z</time>
      </trkpt>
      <trkpt lat="43.55467" lon="2.91731">
        <ele>200</ele>
        <time>2019-03-03T13:48:27Z</time>
      </trkpt>
      <trkpt lat="43.55471" lon="2.91728">
        <ele>200</ele>
        <time>2019-03-03T13:48:28Z</time>
      </trkpt>
      <trkpt lat="43.55475" lon="2.91725">
        <ele>200</ele>
        <time>2019-03-03T13:48:29Z</time>
      </trkpt>
      <trkpt lat="43.5548" lon="2.91721">
        <ele>200</ele>
        <time>2019-03-03T13:48:30Z</time>
      </trkpt>
      <trkpt lat="43.55484" lon="2.91718">
        <ele>199</ele>
        <time>2019-03-03T13:48:31Z</time>
      </trkpt>
      <trkpt lat="43.55489" lon="2.91715">
        <ele>199</ele>
        <time>2019-03-03T13:48:32Z</time>
      </trkpt>
      <trkpt lat="43.55493" lon="2.91712">
        <ele>199</ele>
        <time>2019-03-03T13:48:33Z</time>
      </trkpt>
      <trkpt lat="43.55498" lon="2.91708">
        <ele>199</ele>
        <time>2019-03-03T13:48:34Z</time>
      </trkpt>
      <trkpt lat="43.55503" lon="2.91704">
        <ele>199</ele>
        <time>2019-03-03T13:48:35Z</time>
      </trkpt>
      <trkpt lat="43.55508" lon="2.917">
        <ele>199</ele>
        <time>2019-03-03T13:48:36Z</time>
      </trkpt>
      <trkpt lat="43.55513" lon="2.91696">
        <ele>198</ele>
        <time>2019-03-03T13:48:37Z</time>
      </trkpt>
      <trkpt lat="43.55518" lon="2.91693">
        <ele>198</ele>
        <time>2019-03-03T13:48:38Z</time>
      </trkpt>
      <trkpt lat="43.55523" lon="2.9169">
        <ele>198</ele>
        <time>2019-03-03T13:48:39Z</time>
      </trkpt>
      <trkpt lat="43.55528" lon="2.91687">
        <ele>198</ele>
        <time>2019-03-03T13:48:40Z</time>
      </trkpt>
      <trkpt lat="43.55533" lon="2.91684">
        <ele>198</ele>
        <time>2019-03-03T13:48:41Z</time>
      </trkpt>
      <trkpt lat="43.55538" lon="2.91681">
        <ele>197</ele>
        <time>2019-03-03T13:48:42Z</time>
      </trkpt>
      <trkpt lat="43.55543" lon="2.91678">
        <ele>197</ele>
        <time>2019-03-03T13:48:43Z</time>
      </trkpt>
      <trkpt lat="43.55547" lon="2.91675">
        <ele>197</ele>
        <time>2019-03-03T13:48:44Z</time>
      </trkpt>
      <trkpt lat="43.55551" lon="2.91672">
        <ele>197</ele>
        <time>2019-03-03T13:48:45Z</time>
      </trkpt>
      <trkpt lat="43.55555" lon="2.91668">
        <ele>197</ele>
        <time>2019-03-03T13:48:46Z</time>
      </trkpt>
      <trkpt lat="43.55558" lon="2.91663">
        <ele>197</ele>
        <time>2019-03-03T13:48:47Z</time>
      </trkpt>
      <trkpt lat="43.55562" lon="2.91659">
        <ele>197</ele>
        <time>2019-03-03T13:48:48Z</time>
      </trkpt>
      <trkpt lat="43.55565" lon="2.91655">
        <ele>197</ele>
        <time>2019-03-03T13:48:49Z</time>
      </trkpt>
      <trkpt lat="43.55569" lon="2.9165">
        <ele>197</ele>
        <time>2019-03-03T13:48:50Z</time>
      </trkpt>
      <trkpt lat="43.55572" lon="2.91645">
        <ele>197</ele>
        <time>2019-03-03T13:48:51Z</time>
      </trkpt>
      <trkpt lat="43.55575" lon="2.91641">
        <ele>197</ele>
        <time>2019-03-03T13:48:52Z</time>
      </trkpt>
      <trkpt lat="43.55579" lon="2.91636">
        <ele>197</ele>
        <time>2019-03-03T13:48:53Z</time>
      </trkpt>
      <trkpt lat="43.55582" lon="2.91631">
        <ele>197</ele>
        <time>2019-03-03T13:48:54Z</time>
      </trkpt>
      <trkpt lat="43.55586" lon="2.91627">
        <ele>197</ele>
        <time>2019-03-03T13:48:55Z</time>
      </trkpt>
      <trkpt lat="43.55589" lon="2.91622">
        <ele>197</ele>
        <time>2019-03-03T13:48:56Z</time>
      </trkpt>
      <trkpt lat="43.55593" lon="2.91618">
        <ele>197</ele>
        <time>2019-03-03T13:48:57Z</time>
      </trkpt>
      <trkpt lat="43.55596" lon="2.91614">
        <ele>197</ele>
        <time>2019-03-03T13:48:58Z</time>
      </trkpt>
      <trkpt lat="43.55599" lon="2.91611">
        <ele>197</ele>
        <time>2019-03-03T13:48:59Z</time>
      </trkpt>
      <trkpt lat="43.55603" lon="2.91608">
        <ele>197</ele>
        <time>2019-03-03T13:49:00Z</time>
      </trkpt>
      <trkpt lat="43.55606" lon="2.91606">
        <ele>197</ele>
        <time>2019-03-03T13:49:01Z</time>
      </trkpt>
      <trkpt lat="43.55609" lon="2.91604">
        <ele>197</ele>
        <time>2019-03-03T13:49:02Z</time>
      </trkpt>
      <trkpt lat="43.55613" lon="2.91602">
        <ele>197</ele>
        <time>2019-03-03T13:49:03Z</time>
      </trkpt>
      <trkpt lat="43.55616" lon="2.916">
        <ele>197</ele>
        <time>2019-03-03T13:49:04Z</time>
      </trkpt>
      <trkpt lat="43.55619" lon="2.91597">
        <ele>197</ele>
        <time>2019-03-03T13:49:05Z</time>
      </trkpt>
      <trkpt lat="43.55623" lon="2.91595">
        <ele>197</ele>
        <time>2019-03-03T13:49:06Z</time>
      </trkpt>
      <trkpt lat="43.55626" lon="2.91593">
        <ele>197</ele>
        <time>2019-03-03T13:49:07Z</time>
      </trkpt>
      <trkpt lat="43.55629" lon="2.91591">
        <ele>198</ele>
        <time>2019-03-03T13:49:08Z</time>
      </trkpt>
      <trkpt lat="43.55632" lon="2.9159">
        <ele>198</ele>
        <time>2019-03-03T13:49:09Z</time>
      </trkpt>
      <trkpt lat="43.55635" lon="2.91588">
        <ele>198</ele>
        <time>2019-03-03T13:49:10Z</time>
      </trkpt>
      <trkpt lat="43.55638" lon="2.91587">
        <ele>198</ele>
        <time>2019-03-03T13:49:11Z</time>
      </trkpt>
      <trkpt lat="43.55641" lon="2.91586">
        <ele>198</ele>
        <time>2019-03-03T13:49:12Z</time>
      </trkpt>
      <trkpt lat="43.55643" lon="2.91585">
        <ele>198</ele>
        <time>2019-03-03T13:49:13Z</time>
      </trkpt>
      <trkpt lat="43.55646" lon="2.91584">
        <ele>199</ele>
        <time>2019-03-03T13:49:14Z</time>
      </trkpt>
      <trkpt lat="43.55648" lon="2.91583">
        <ele>199</ele>
        <time>2019-03-03T13:49:15Z</time>
      </trkpt>
      <trkpt lat="43.5565" lon="2.91583">
        <ele>199</ele>
        <time>2019-03-03T13:49:16Z</time>
      </trkpt>
      <trkpt lat="43.55651" lon="2.91583">
        <ele>199</ele>
        <time>2019-03-03T13:49:17Z</time>
      </trkpt>
      <trkpt lat="43.55651" lon="2.91582">
        <ele>199</ele>
        <time>2019-03-03T13:49:18Z</time>
      </trkpt>
      <trkpt lat="43.55645" lon="2.91584">
        <ele>199</ele>
        <time>2019-03-03T13:51:44Z</time>
      </trkpt>
      <trkpt lat="43.55644" lon="2.91586">
        <ele>199</ele>
        <time>2019-03-03T13:51:45Z</time>
      </trkpt>
      <trkpt lat="43.55642" lon="2.91588">
        <ele>199</ele>
        <time>2019-03-03T13:51:46Z</time>
      </trkpt>
      <trkpt lat="43.55641" lon="2.9159">
        <ele>199</ele>
        <time>2019-03-03T13:51:47Z</time>
      </trkpt>
    </trkseg>
  </trk>
</gpx>